Time;durP1;ratioP1;P1;durP2;ratioP2;P2;SDS_P1;SDS_P2;PMS_P1;PMS_P2;Temp;Humidity;BMP_temperature;BMP_pressure;BME280_temperature;BME280_humidity;BME280_pressure;Samples;Min_cycle;Max_cycle;Signal;HPM_P1;HPM_P2
2023/10/14 00:02:21;;;;;;;4.07;3.27;;;21.70;70.00;;;;;;10520345;28;20215;-82
2023/10/14 00:07:43;;;;;;;3.50;2.77;;;21.70;72.10;;;;;;10509352;28;20702;-82
2023/10/14 00:13:10;;;;;;;3.60;3.23;;;21.50;73.60;;;;;;10517793;28;20213;-82
2023/10/14 00:18:34;;;;;;;4.10;3.80;;;21.40;74.60;;;;;;10515552;28;20197;-80
2023/10/14 00:23:57;;;;;;;5.00;4.07;;;21.40;73.90;;;;;;10519723;28;20212;-79
2023/10/14 00:29:20;;;;;;;5.37;3.77;;;21.30;75.10;;;;;;10522431;28;20197;-81
2023/10/14 00:34:43;;;;;;;5.07;3.70;;;21.40;76.40;;;;;;10499316;28;20224;-81
2023/10/14 00:40:10;;;;;;;5.97;4.50;;;21.40;78.20;;;;;;10521434;28;20223;-80
2023/10/14 00:45:34;;;;;;;4.90;4.43;;;21.40;80.80;;;;;;10501995;28;20828;-81
2023/10/14 00:50:59;;;;;;;6.43;5.13;;;21.50;82.80;;;;;;10534516;28;20331;-81
2023/10/14 00:56:27;;;;;;;5.67;4.73;;;21.50;82.90;;;;;;10507718;28;20623;-81
2023/10/14 01:01:55;;;;;;;6.37;4.77;;;21.60;83.00;;;;;;10504842;28;20231;-80
2023/10/14 01:07:20;;;;;;;6.00;5.27;;;21.60;84.40;;;;;;10523384;28;20286;-81
2023/10/14 01:12:44;;;;;;;6.37;5.77;;;21.60;89.10;;;;;;10516028;28;20204;-81
2023/10/14 01:18:06;;;;;;;6.27;5.67;;;21.60;90.20;;;;;;10553819;22;20232;-79
2023/10/14 01:23:30;;;;;;;5.70;5.20;;;21.50;90.60;;;;;;10508345;28;20197;-78
2023/10/14 01:28:59;;;;;;;9.60;5.60;;;21.50;91.20;;;;;;10463416;28;20198;-78
2023/10/14 01:34:24;;;;;;;9.67;6.77;;;21.40;91.50;;;;;;10463701;28;20225;-78
2023/10/14 01:39:50;;;;;;;8.33;6.57;;;21.40;91.80;;;;;;10468676;28;20593;-79
2023/10/14 01:45:13;;;;;;;8.47;5.80;;;21.40;92.00;;;;;;10472707;28;20607;-78
2023/10/14 01:50:37;;;;;;;8.80;6.40;;;21.30;92.30;;;;;;10493048;28;20207;-78
2023/10/14 01:56:02;;;;;;;7.27;6.60;;;21.30;92.70;;;;;;10462992;28;20659;-78
2023/10/14 02:01:25;;;;;;;6.83;6.23;;;21.20;92.70;;;;;;10487496;28;20228;-78
2023/10/14 02:07:01;;;;;;;6.70;6.20;;;21.10;93.00;;;;;;10486685;28;20219;-78
2023/10/14 02:12:25;;;;;;;8.53;6.80;;;21.10;93.40;;;;;;10461145;28;20708;-78
2023/10/14 02:17:47;;;;;;;8.27;5.90;;;21.10;93.30;;;;;;10465665;28;20670;-79
2023/10/14 02:23:11;;;;;;;8.03;6.50;;;21.00;93.50;;;;;;10484519;28;20241;-78
2023/10/14 02:28:40;;;;;;;7.13;6.43;;;21.00;93.60;;;;;;10464078;28;20229;-77
2023/10/14 02:34:05;;;;;;;9.20;7.17;;;21.00;93.60;;;;;;10466987;28;20220;-78
2023/10/14 02:39:28;;;;;;;7.63;6.60;;;20.90;93.60;;;;;;10469047;28;20204;-78
2023/10/14 02:44:52;;;;;;;7.37;6.13;;;20.80;93.70;;;;;;10489905;28;20228;-78
2023/10/14 02:50:15;;;;;;;6.50;5.90;;;20.80;93.80;;;;;;10488778;28;20204;-78
2023/10/14 02:55:52;;;;;;;7.30;6.57;;;20.90;93.80;;;;;;10477308;28;20229;-78
2023/10/14 03:01:22;;;;;;;7.27;6.67;;;20.90;93.80;;;;;;10463317;28;20217;-79
2023/10/14 03:06:53;;;;;;;7.20;6.60;;;20.90;93.90;;;;;;10471135;28;20221;-78
2023/10/14 03:12:18;;;;;;;6.73;6.13;;;20.90;93.80;;;;;;10491625;28;20197;-78
2023/10/14 03:17:51;;;;;;;8.70;6.27;;;20.90;93.80;;;;;;10456130;28;20221;-78
2023/10/14 03:23:19;;;;;;;12.17;6.73;;;21.00;93.80;;;;;;10488627;28;20201;-78
2023/10/14 03:28:44;;;;;;;8.77;6.63;;;21.00;93.70;;;;;;10475159;28;20314;-77
2023/10/14 03:34:10;;;;;;;9.43;6.70;;;20.90;93.70;;;;;;10495450;28;20225;-78
2023/10/14 03:39:40;;;;;;;8.80;7.20;;;20.90;93.80;;;;;;10497413;28;20196;-78
2023/10/14 03:45:06;;;;;;;7.20;6.50;;;20.90;93.80;;;;;;10466143;28;20300;-78
2023/10/14 03:50:30;;;;;;;9.97;6.90;;;20.90;93.80;;;;;;10469966;28;20227;-79
2023/10/14 03:55:52;;;;;;;13.43;6.87;;;20.90;93.80;;;;;;10492539;28;20696;-78
2023/10/14 04:01:14;;;;;;;8.13;6.97;;;21.00;93.80;;;;;;10490467;28;20265;-78
2023/10/14 04:06:39;;;;;;;8.20;6.63;;;21.00;93.80;;;;;;10484819;28;20217;-78
2023/10/14 04:12:01;;;;;;;8.67;7.07;;;20.90;93.90;;;;;;10456920;28;20205;-78
2023/10/14 04:17:30;;;;;;;7.90;6.80;;;20.90;94.40;;;;;;10483847;28;20809;-78
2023/10/14 04:22:54;;;;;;;10.10;6.73;;;20.90;94.20;;;;;;10454363;28;20219;-79
2023/10/14 04:28:30;;;;;;;10.27;6.40;;;20.90;94.30;;;;;;10488287;28;20220;-79
2023/10/14 04:33:52;;;;;;;9.60;6.23;;;21.00;94.40;;;;;;10451527;28;20206;-78
2023/10/14 04:39:25;;;;;;;6.77;6.07;;;21.00;94.40;;;;;;10458521;28;20193;-79
2023/10/14 04:44:55;;;;;;;6.30;5.73;;;21.00;94.50;;;;;;10456110;28;20209;-79
2023/10/14 04:50:22;;;;;;;6.03;5.43;;;21.00;96.50;;;;;;10483416;28;20194;-79
2023/10/14 04:55:46;;;;;;;9.53;6.40;;;20.80;97.60;;;;;;10459763;28;20221;-79
2023/10/14 05:01:17;;;;;;;7.33;6.07;;;20.60;98.10;;;;;;10467729;28;20269;-79
2023/10/14 05:06:41;;;;;;;5.97;5.47;;;20.40;98.40;;;;;;10465434;28;20390;-79
2023/10/14 05:12:08;;;;;;;9.80;7.27;;;20.20;99.00;;;;;;10473373;28;20223;-79
2023/10/14 05:17:32;;;;;;;7.00;6.40;;;20.20;99.40;;;;;;10483074;28;20216;-79
2023/10/14 05:22:56;;;;;;;8.00;6.80;;;20.10;99.50;;;;;;10498749;28;20201;-79
2023/10/14 05:28:22;;;;;;;7.07;6.37;;;20.10;99.80;;;;;;10470793;28;20229;-79
2023/10/14 05:33:45;;;;;;;6.57;6.07;;;20.10;99.80;;;;;;10490930;28;20204;-79
2023/10/14 05:39:10;;;;;;;6.00;5.40;;;20.20;99.90;;;;;;10494330;28;20595;-79
2023/10/14 05:44:33;;;;;;;7.60;6.27;;;20.10;99.90;;;;;;10462056;28;20281;-79
2023/10/14 05:49:55;;;;;;;6.80;6.30;;;20.10;99.90;;;;;;10499188;28;20204;-79
2023/10/14 05:55:19;;;;;;;7.17;6.47;;;20.10;99.90;;;;;;10459853;28;20235;-79
2023/10/14 06:00:43;;;;;;;7.87;6.70;;;20.10;99.90;;;;;;10462821;28;20539;-79
2023/10/14 06:06:09;;;;;;;5.90;5.40;;;20.10;99.90;;;;;;10472407;28;20232;-79
2023/10/14 06:11:31;;;;;;;6.90;6.30;;;20.10;99.90;;;;;;10466529;28;20205;-78
2023/10/14 06:16:57;;;;;;;6.47;5.83;;;20.10;99.90;;;;;;10471804;28;20303;-79
2023/10/14 06:22:20;;;;;;;6.80;6.20;;;20.00;99.90;;;;;;10489855;28;20666;-79
2023/10/14 06:27:46;;;;;;;6.70;5.43;;;20.00;99.90;;;;;;10473715;28;20217;-78
2023/10/14 06:33:11;;;;;;;6.50;4.80;;;20.10;99.50;;;;;;10482882;28;20200;-79
2023/10/14 06:38:36;;;;;;;7.47;5.33;;;20.10;99.30;;;;;;10483444;28;20314;-79
2023/10/14 06:43:58;;;;;;;7.17;5.47;;;20.20;99.00;;;;;;10478429;28;20197;-79
2023/10/14 06:49:22;;;;;;;8.90;6.10;;;20.20;99.10;;;;;;10487150;28;20201;-79
2023/10/14 06:54:46;;;;;;;7.00;5.20;;;20.20;98.80;;;;;;10490262;28;20221;-79
2023/10/14 07:00:12;;;;;;;7.03;5.20;;;20.20;98.10;;;;;;10467372;28;20189;-78
2023/10/14 07:05:43;;;;;;;7.57;5.10;;;20.30;98.10;;;;;;10462530;28;20221;-78
2023/10/14 07:11:06;;;;;;;7.70;5.10;;;20.30;97.50;;;;;;10457041;28;20198;-79
2023/10/14 07:16:28;;;;;;;9.60;6.37;;;20.30;97.70;;;;;;10494854;28;20224;-79
2023/10/14 07:21:51;;;;;;;11.53;5.37;;;20.40;98.10;;;;;;10487434;28;20615;-79
2023/10/14 07:27:17;;;;;;;7.33;4.53;;;20.60;98.20;;;;;;10548481;22;20240;-80
2023/10/14 07:32:39;;;;;;;3.27;2.97;;;20.70;97.70;;;;;;10542313;28;20274;-80
2023/10/14 07:38:03;;;;;;;4.67;3.63;;;20.90;97.10;;;;;;10543394;28;20220;-80
2023/10/14 07:43:26;;;;;;;9.60;4.20;;;20.90;96.80;;;;;;10542564;28;20196;-80
2023/10/14 07:48:53;;;;;;;3.63;3.33;;;21.00;96.60;;;;;;10545283;28;20643;-81
2023/10/14 07:54:16;;;;;;;5.03;3.50;;;21.00;96.50;;;;;;10565255;28;20270;-81
2023/10/14 07:59:38;;;;;;;3.40;3.10;;;21.00;96.80;;;;;;10542923;28;20200;-80
2023/10/14 08:05:00;;;;;;;2.97;2.77;;;21.10;96.30;;;;;;10543781;28;20281;-81
2023/10/14 08:10:24;;;;;;;4.47;3.40;;;21.00;96.40;;;;;;10542316;28;20203;-80
2023/10/14 08:15:48;;;;;;;3.20;2.90;;;20.90;95.70;;;;;;10540814;28;20231;-81
2023/10/14 08:21:11;;;;;;;5.13;3.67;;;20.90;95.50;;;;;;10539791;28;20212;-80
2023/10/14 08:26:35;;;;;;;5.70;3.33;;;20.80;95.50;;;;;;10533739;28;20224;-81
2023/10/14 08:31:58;;;;;;;4.83;3.17;;;20.90;94.80;;;;;;10545246;28;20578;-81
2023/10/14 08:37:20;;;;;;;3.10;2.53;;;20.90;94.70;;;;;;10543271;28;20608;-81
2023/10/14 08:42:48;;;;;;;2.10;1.90;;;20.90;94.70;;;;;;10526335;28;20192;-81
2023/10/14 08:48:11;;;;;;;6.40;2.60;;;20.80;94.20;;;;;;10499804;28;20213;-81
2023/10/14 08:53:40;;;;;;;3.23;2.50;;;20.80;94.40;;;;;;10506848;28;20208;-80
2023/10/14 08:59:04;;;;;;;2.53;2.33;;;20.70;94.50;;;;;;10549149;28;20308;-81
2023/10/14 09:04:28;;;;;;;3.70;2.20;;;20.80;94.60;;;;;;10549718;28;20277;-81
2023/10/14 09:09:53;;;;;;;2.83;2.50;;;21.00;94.70;;;;;;10557602;28;20257;-81
2023/10/14 09:15:20;;;;;;;3.33;2.10;;;21.30;94.10;;;;;;10548699;28;20307;-81
2023/10/14 09:20:43;;;;;;;1.97;1.10;;;21.40;94.10;;;;;;10551104;28;20200;-81
2023/10/14 09:26:05;;;;;;;1.00;1.00;;;21.30;93.40;;;;;;10546422;28;20669;-81
2023/10/14 09:31:29;;;;;;;5.43;2.50;;;20.90;94.20;;;;;;10547312;28;20203;-78
2023/10/14 09:36:52;;;;;;;5.23;3.83;;;20.60;97.10;;;;;;10548024;28;20705;-81
2023/10/14 09:42:15;;;;;;;4.40;4.20;;;20.00;99.10;;;;;;10539506;28;20204;-80
2023/10/14 09:47:43;;;;;;;4.93;4.73;;;19.50;99.90;;;;;;10568054;28;20667;-79
2023/10/14 09:53:06;;;;;;;4.30;4.10;;;19.10;99.90;;;;;;10536751;28;20211;-81
2023/10/14 09:58:30;;;;;;;5.10;4.80;;;18.80;99.90;;;;;;10544100;28;20231;-80
2023/10/14 10:04:05;;;;;;;4.43;4.23;;;18.70;99.90;;;;;;10544798;28;20216;-80
2023/10/14 10:10:11;;;;;;;3.63;3.33;;;18.60;99.90;;;;;;10500980;28;20225;-80
2023/10/14 10:15:35;;;;;;;2.20;2.10;;;18.70;99.90;;;;;;10509738;28;20217;-80
2023/10/14 10:20:59;;;;;;;2.37;2.17;;;19.00;99.90;;;;;;10545857;28;20210;-80
2023/10/14 10:26:23;;;;;;;2.07;1.97;;;19.10;99.90;;;;;;10528781;28;20223;-78
2023/10/14 10:32:05;;;;;;;2.00;1.90;;;19.30;99.90;;;;;;10542472;28;20230;-80
2023/10/14 10:37:29;;;;;;;1.50;1.40;;;19.40;99.90;;;;;;10543775;28;20292;-81
2023/10/14 10:42:54;;;;;;;1.53;1.43;;;19.60;99.70;;;;;;10542191;28;20204;-78
2023/10/14 10:48:16;;;;;;;1.53;1.43;;;19.70;99.10;;;;;;10526660;28;20286;-77
2023/10/14 10:53:44;;;;;;;1.60;1.50;;;19.80;98.90;;;;;;10516268;28;20535;-77
2023/10/14 10:59:06;;;;;;;1.80;1.70;;;19.90;99.20;;;;;;10545435;28;20243;-78
2023/10/14 11:04:30;;;;;;;1.47;1.37;;;19.90;99.30;;;;;;10542606;28;20595;-77
2023/10/14 11:09:54;;;;;;;2.37;1.57;;;19.80;98.90;;;;;;10541405;28;20276;-78
2023/10/14 11:15:20;;;;;;;1.37;1.30;;;19.60;99.30;;;;;;10523047;28;20236;-77
2023/10/14 11:20:45;;;;;;;2.40;2.30;;;19.50;98.90;;;;;;10541874;28;20574;-78
2023/10/14 11:26:12;;;;;;;3.27;3.10;;;19.10;99.90;;;;;;10543146;28;20251;-75
2023/10/14 11:31:36;;;;;;;5.53;5.20;;;18.70;99.90;;;;;;10528093;28;20756;-79
2023/10/14 11:36:58;;;;;;;5.90;5.40;;;18.40;99.90;;;;;;10538302;28;20231;-78
2023/10/14 11:42:22;;;;;;;6.77;6.37;;;18.20;99.90;;;;;;10540721;28;20253;-77
2023/10/14 11:47:44;;;;;;;7.00;6.70;;;18.10;99.90;;;;;;10539689;28;20216;-78
2023/10/14 11:53:07;;;;;;;6.87;6.43;;;18.10;99.90;;;;;;10538011;28;20219;-79
2023/10/14 11:58:31;;;;;;;6.40;6.10;;;18.00;99.90;;;;;;10528540;28;20225;-81
2023/10/14 12:03:53;;;;;;;6.60;6.40;;;17.90;99.90;;;;;;10524445;28;20247;-81
2023/10/14 12:09:19;;;;;;;8.40;7.70;;;17.70;99.90;;;;;;10540823;28;20196;-82
2023/10/14 12:14:43;;;;;;;7.90;7.37;;;17.60;99.90;;;;;;10544342;28;20674;-80
2023/10/14 12:20:10;;;;;;;6.53;6.33;;;17.50;99.90;;;;;;10542559;28;20210;-80
2023/10/14 12:25:32;;;;;;;7.93;7.63;;;17.40;99.90;;;;;;10550175;28;20596;-80
2023/10/14 12:30:58;;;;;;;6.97;6.60;;;17.30;99.90;;;;;;10543483;28;20195;-79
2023/10/14 12:36:22;;;;;;;3.30;3.20;;;17.20;99.90;;;;;;10546492;28;20223;-79
2023/10/14 12:41:47;;;;;;;39.17;12.77;;;17.10;99.90;;;;;;10547087;28;20654;-80
2023/10/14 12:47:11;;;;;;;9.10;8.60;;;17.10;99.90;;;;;;10482249;28;20248;-80
2023/10/14 12:52:34;;;;;;;7.00;6.80;;;17.20;99.90;;;;;;10537871;28;20199;-78
2023/10/14 12:57:57;;;;;;;7.87;7.57;;;17.10;99.90;;;;;;10538544;28;20231;-80
2023/10/14 13:03:23;;;;;;;3.53;3.43;;;17.00;99.90;;;;;;10537224;28;20638;-80
2023/10/14 13:08:45;;;;;;;6.40;6.10;;;16.80;99.90;;;;;;10526121;28;20193;-80
2023/10/14 13:14:07;;;;;;;5.27;5.07;;;16.70;99.90;;;;;;10537431;28;20216;-77
2023/10/14 13:19:34;;;;;;;5.70;5.50;;;16.70;99.90;;;;;;10537686;28;20220;-77
2023/10/14 13:24:56;;;;;;;4.90;4.70;;;16.70;99.90;;;;;;10519817;28;20232;-78
2023/10/14 13:30:22;;;;;;;3.00;2.90;;;16.70;99.90;;;;;;10536649;28;20197;-79
2023/10/14 13:35:46;;;;;;;4.43;4.23;;;16.70;99.90;;;;;;10509798;28;20708;-78
2023/10/14 13:41:09;;;;;;;5.23;4.93;;;16.80;99.90;;;;;;10546281;28;20226;-77
2023/10/14 13:46:32;;;;;;;4.47;4.27;;;16.80;99.90;;;;;;10528471;28;20239;-79
2023/10/14 13:51:55;;;;;;;3.90;3.70;;;16.70;99.90;;;;;;10573874;28;20227;-78
2023/10/14 13:57:19;;;;;;;3.77;3.53;;;16.60;99.90;;;;;;10546724;28;20223;-77
2023/10/14 14:02:41;;;;;;;2.50;2.40;;;16.60;99.90;;;;;;10541950;28;20242;-79
2023/10/14 14:08:08;;;;;;;3.20;3.10;;;16.70;99.90;;;;;;10547492;28;20220;-79
2023/10/14 14:13:31;;;;;;;2.80;2.60;;;16.70;99.90;;;;;;10503462;28;20564;-78
2023/10/14 14:18:53;;;;;;;2.43;2.33;;;16.80;99.90;;;;;;10533601;28;20227;-77
2023/10/14 14:24:16;;;;;;;3.00;2.70;;;16.80;99.90;;;;;;10541976;28;20224;-77
2023/10/14 14:29:42;;;;;;;2.50;2.30;;;16.80;99.90;;;;;;10541380;28;20211;-79
2023/10/14 14:35:08;;;;;;;2.27;2.07;;;16.80;99.90;;;;;;10544973;28;20231;-78
2023/10/14 14:40:33;;;;;;;3.50;2.33;;;16.90;99.90;;;;;;10532053;28;20207;-77
2023/10/14 14:45:57;;;;;;;2.93;2.63;;;16.90;99.90;;;;;;10540874;28;20205;-79
2023/10/14 14:51:19;;;;;;;2.83;2.63;;;16.90;99.80;;;;;;10541007;28;20204;-78
2023/10/14 14:56:44;;;;;;;2.23;2.13;;;16.90;99.50;;;;;;10525073;28;21145;-78
2023/10/14 15:02:07;;;;;;;7.00;2.00;;;16.80;99.10;;;;;;10541559;28;20669;-80
2023/10/14 15:07:29;;;;;;;3.17;2.77;;;16.80;98.60;;;;;;10528088;28;20208;-79
2023/10/14 15:12:53;;;;;;;4.87;2.90;;;16.80;98.20;;;;;;10539832;28;20219;-81
2023/10/14 15:18:15;;;;;;;4.63;2.90;;;16.80;98.40;;;;;;10544538;28;20220;-80
2023/10/14 15:23:38;;;;;;;4.47;2.63;;;16.80;98.10;;;;;;10534221;28;20204;-79
2023/10/14 15:29:03;;;;;;;9.53;2.93;;;16.90;98.20;;;;;;10546588;28;20219;-78
2023/10/14 15:34:27;;;;;;;4.53;2.70;;;16.90;96.50;;;;;;10526222;28;20653;-79
2023/10/14 15:39:49;;;;;;;4.60;2.63;;;16.90;95.70;;;;;;10520894;28;20247;-79
2023/10/14 15:45:16;;;;;;;3.93;3.40;;;16.90;94.80;;;;;;10481411;28;20216;-79
2023/10/14 15:50:43;;;;;;;4.10;2.77;;;16.80;95.00;;;;;;10539335;28;20490;-79
2023/10/14 15:56:06;;;;;;;2.80;2.60;;;16.80;95.20;;;;;;10539458;28;20212;-80
2023/10/14 16:01:32;;;;;;;5.17;2.70;;;16.80;93.50;;;;;;10526442;28;20196;-80
2023/10/14 16:06:55;;;;;;;6.70;2.60;;;16.60;93.80;;;;;;10541331;28;20576;-80
2023/10/14 16:12:17;;;;;;;4.50;2.60;;;16.50;93.50;;;;;;10537801;28;20280;-80
2023/10/14 16:17:42;;;;;;;3.90;2.40;;;16.40;93.30;;;;;;10536423;28;20235;-79
2023/10/14 16:23:06;;;;;;;5.90;2.77;;;16.20;93.60;;;;;;10554899;28;20303;-79
2023/10/14 16:28:28;;;;;;;6.17;3.00;;;16.10;93.40;;;;;;10535753;28;20559;-79
2023/10/14 16:33:53;;;;;;;5.87;2.73;;;16.00;93.40;;;;;;10536972;28;20634;-79
2023/10/14 16:39:16;;;;;;;8.77;2.67;;;15.90;93.20;;;;;;10522554;28;20228;-78
2023/10/14 16:44:38;;;;;;;4.50;2.73;;;15.80;92.80;;;;;;10536177;28;20228;-78
2023/10/14 16:50:02;;;;;;;3.70;2.90;;;15.70;93.50;;;;;;10552567;28;20210;-79
2023/10/14 16:55:25;;;;;;;4.77;2.93;;;15.60;93.40;;;;;;10543409;28;20212;-80
2023/10/14 17:00:48;;;;;;;7.30;3.60;;;15.60;93.50;;;;;;10508371;28;20576;-79
2023/10/14 17:06:14;;;;;;;4.40;2.90;;;15.50;93.20;;;;;;10521620;28;20307;-78
2023/10/14 17:11:37;;;;;;;6.93;2.97;;;15.50;93.00;;;;;;10495808;28;20579;-78
2023/10/14 17:16:59;;;;;;;6.00;4.00;;;15.40;93.20;;;;;;10544657;28;20220;-80
2023/10/14 17:22:22;;;;;;;4.47;3.43;;;15.50;92.50;;;;;;10576982;28;20209;-80
2023/10/14 17:27:45;;;;;;;4.60;3.30;;;15.40;92.60;;;;;;10550531;28;20231;-79
2023/10/14 17:33:09;;;;;;;3.00;2.63;;;15.40;93.20;;;;;;10549770;28;20670;-80
2023/10/14 17:38:32;;;;;;;5.90;3.10;;;15.30;92.70;;;;;;10556075;28;20227;-79
2023/10/14 17:43:56;;;;;;;4.63;3.50;;;15.20;92.20;;;;;;10546097;28;20224;-79
2023/10/14 17:49:19;;;;;;;4.87;3.00;;;15.20;92.00;;;;;;10538597;28;20200;-79
2023/10/14 17:54:43;;;;;;;3.30;2.60;;;15.20;91.30;;;;;;10554656;28;20224;-79
2023/10/14 18:00:07;;;;;;;5.90;2.97;;;15.20;92.10;;;;;;10546108;28;20220;-79
2023/10/14 18:05:30;;;;;;;3.90;3.00;;;15.10;92.00;;;;;;10544108;28;20216;-79
2023/10/14 18:10:54;;;;;;;4.10;3.27;;;15.10;92.70;;;;;;10546319;28;20574;-80
2023/10/14 18:16:16;;;;;;;7.50;3.27;;;15.10;92.80;;;;;;10544686;28;20552;-80
2023/10/14 18:21:40;;;;;;;5.23;2.20;;;15.00;92.20;;;;;;10582759;28;20204;-78
2023/10/14 18:27:04;;;;;;;10.17;7.70;;;15.00;90.40;;;;;;10544323;28;20705;-80
2023/10/14 18:32:26;;;;;;;4.67;2.60;;;15.00;90.50;;;;;;10540886;28;20579;-80
2023/10/14 18:37:50;;;;;;;4.53;3.20;;;14.90;91.60;;;;;;10498669;28;20225;-78
2023/10/14 18:43:15;;;;;;;5.97;3.60;;;14.80;91.90;;;;;;10539826;28;20196;-79
2023/10/14 18:48:37;;;;;;;7.30;3.63;;;14.80;92.30;;;;;;10542177;28;20836;-77
2023/10/14 18:53:59;;;;;;;46.83;24.47;;;14.80;92.10;;;;;;10576622;28;20212;-79
2023/10/14 18:59:24;;;;;;;15.00;7.50;;;14.90;92.10;;;;;;10540074;28;20654;-79
2023/10/14 19:04:46;;;;;;;6.60;3.23;;;14.80;92.30;;;;;;10540876;28;20220;-79
2023/10/14 19:10:12;;;;;;;3.50;2.27;;;14.70;92.10;;;;;;10537879;28;20266;-79
2023/10/14 19:15:39;;;;;;;6.53;3.30;;;14.70;92.20;;;;;;10524404;28;20216;-80
2023/10/14 19:21:05;;;;;;;3.30;2.40;;;14.70;91.60;;;;;;10540382;28;20217;-80
2023/10/14 19:26:28;;;;;;;3.40;2.33;;;14.60;92.20;;;;;;10541465;28;20251;-79
2023/10/14 19:31:54;;;;;;;3.33;2.57;;;14.60;92.10;;;;;;10539566;28;20193;-79
2023/10/14 19:37:16;;;;;;;5.20;2.40;;;14.60;92.00;;;;;;10547388;28;20230;-79
2023/10/14 19:42:39;;;;;;;3.70;3.10;;;14.50;92.20;;;;;;10538613;28;20665;-80
2023/10/14 19:48:02;;;;;;;4.93;2.53;;;14.50;91.80;;;;;;10538297;28;20224;-79
2023/10/14 19:53:26;;;;;;;4.80;2.90;;;14.50;91.90;;;;;;10542588;28;20250;-79
2023/10/14 19:58:49;;;;;;;5.87;3.30;;;14.60;91.50;;;;;;10539769;28;20219;-79
2023/10/14 20:04:13;;;;;;;2.80;2.10;;;14.60;91.20;;;;;;10496435;28;20315;-79
2023/10/14 20:09:35;;;;;;;4.03;2.20;;;14.60;90.90;;;;;;10521498;28;20204;-79
2023/10/14 20:14:57;;;;;;;4.37;2.33;;;14.60;90.90;;;;;;10536928;28;20209;-77
2023/10/14 20:20:21;;;;;;;4.20;2.83;;;14.60;90.90;;;;;;10546723;28;20223;-79
2023/10/14 20:25:46;;;;;;;6.83;2.53;;;14.50;90.90;;;;;;10537614;28;20756;-78
2023/10/14 20:31:11;;;;;;;3.37;2.20;;;14.50;91.10;;;;;;10535641;28;20744;-80
2023/10/14 20:36:36;;;;;;;2.83;2.27;;;14.40;91.30;;;;;;10537613;28;20327;-79
2023/10/14 20:42:01;;;;;;;4.33;3.20;;;14.40;91.10;;;;;;10535459;28;20224;-78
2023/10/14 20:47:23;;;;;;;4.10;3.10;;;14.30;91.50;;;;;;10522004;28;20212;-79
2023/10/14 20:52:48;;;;;;;3.93;2.47;;;14.30;91.60;;;;;;10538292;28;20592;-78
2023/10/14 20:58:11;;;;;;;2.47;2.27;;;14.30;91.80;;;;;;10536064;28;20339;-79
2023/10/14 21:03:34;;;;;;;3.27;2.23;;;14.20;91.40;;;;;;10551926;28;20248;-80
2023/10/14 21:08:59;;;;;;;5.27;2.77;;;14.20;91.40;;;;;;10538311;28;20191;-79
2023/10/14 21:14:21;;;;;;;4.27;2.40;;;14.10;91.40;;;;;;10545668;28;20298;-79
2023/10/14 21:19:44;;;;;;;4.63;2.40;;;14.10;91.60;;;;;;10549192;28;20708;-79
2023/10/14 21:25:10;;;;;;;5.07;2.87;;;14.00;91.60;;;;;;10543346;28;20228;-79
2023/10/14 21:30:34;;;;;;;5.70;2.33;;;14.00;91.70;;;;;;10542171;28;20196;-79
2023/10/14 21:35:57;;;;;;;3.50;2.20;;;13.90;91.90;;;;;;10527208;28;20274;-77
2023/10/14 21:41:21;;;;;;;5.07;2.20;;;13.80;91.50;;;;;;10535641;28;20248;-78
2023/10/14 21:46:44;;;;;;;3.27;2.70;;;13.70;91.80;;;;;;10520264;28;20743;-79
2023/10/14 21:52:06;;;;;;;2.57;2.17;;;13.70;92.00;;;;;;10556211;28;20210;-79
2023/10/14 21:57:29;;;;;;;2.97;2.40;;;13.60;91.60;;;;;;10536517;28;20228;-79
2023/10/14 22:02:55;;;;;;;3.13;2.27;;;13.60;91.60;;;;;;10536504;28;20196;-79
2023/10/14 22:08:18;;;;;;;2.57;2.20;;;13.50;91.50;;;;;;10541892;28;20220;-79
2023/10/14 22:13:42;;;;;;;3.43;2.70;;;13.50;91.90;;;;;;10538299;28;20704;-78
2023/10/14 22:19:04;;;;;;;4.53;2.60;;;13.50;91.50;;;;;;10544850;28;20231;-79
2023/10/14 22:24:32;;;;;;;5.63;2.30;;;13.50;91.40;;;;;;10558227;28;20227;-80
2023/10/14 22:29:56;;;;;;;3.50;2.30;;;13.40;91.40;;;;;;10537770;28;20185;-79
2023/10/14 22:35:20;;;;;;;3.90;2.47;;;13.40;91.70;;;;;;10525766;28;20244;-79
2023/10/14 22:40:43;;;;;;;4.33;2.80;;;13.40;91.80;;;;;;10540160;28;20219;-79
2023/10/14 22:46:10;;;;;;;2.97;2.50;;;13.50;91.90;;;;;;10540735;28;20616;-79
2023/10/14 22:51:33;;;;;;;2.60;2.40;;;13.40;92.30;;;;;;10546390;28;20203;-78
2023/10/14 22:56:55;;;;;;;3.47;2.37;;;13.40;92.30;;;;;;10538893;28;20232;-79
2023/10/14 23:02:18;;;;;;;3.57;2.43;;;13.30;91.90;;;;;;10533727;28;20191;-79
2023/10/14 23:07:43;;;;;;;6.90;2.57;;;13.30;92.00;;;;;;10541843;28;20728;-79
2023/10/14 23:13:05;;;;;;;5.40;2.70;;;13.30;92.20;;;;;;10539990;28;20600;-79
2023/10/14 23:18:29;;;;;;;3.20;2.40;;;13.30;92.20;;;;;;10542378;28;20220;-79
2023/10/14 23:23:51;;;;;;;4.43;3.03;;;13.30;92.50;;;;;;10543532;28;20224;-79
2023/10/14 23:29:13;;;;;;;4.23;2.60;;;13.30;92.40;;;;;;10539478;28;20222;-79
2023/10/14 23:34:37;;;;;;;5.23;2.37;;;13.20;92.00;;;;;;10547897;28;20223;-79
2023/10/14 23:39:59;;;;;;;4.87;2.90;;;13.20;92.30;;;;;;10539486;28;20311;-79
2023/10/14 23:45:24;;;;;;;3.33;2.50;;;13.10;92.40;;;;;;10538142;28;20231;-79
2023/10/14 23:50:48;;;;;;;2.17;1.90;;;13.00;92.50;;;;;;10559580;28;20200;-79
2023/10/14 23:56:13;;;;;;;4.07;2.30;;;12.90;92.00;;;;;;10554489;28;20212;-79
